createdAt,value
2023-05-02T00:00:44.951Z,5.19
2023-05-02T00:01:44.818Z,4.95
2023-05-02T00:02:45.009Z,4.57
2023-05-02T00:03:45.086Z,4.81
2023-05-02T00:04:45.097Z,4.93
2023-05-02T00:05:45.468Z,4.64
2023-05-02T00:06:45.205Z,4.81
2023-05-02T00:07:45.217Z,5.54
2023-05-02T00:08:45.254Z,5.36
2023-05-02T00:09:45.306Z,5.66
2023-05-02T00:10:45.340Z,6.26
2023-05-02T00:11:45.386Z,7.25
2023-05-02T00:12:45.437Z,7.11
2023-05-02T00:13:45.507Z,8.02
2023-05-02T00:14:45.585Z,9.78
2023-05-02T00:15:45.676Z,10.69
2023-05-02T00:16:45.739Z,8.18
2023-05-02T00:17:45.765Z,6.19
2023-05-02T00:18:45.790Z,6.26
2023-05-02T00:19:45.876Z,7.02
2023-05-02T00:20:45.985Z,7.86
2023-05-02T00:21:46.026Z,9.44
2023-05-02T00:22:46.045Z,9.37
2023-05-02T00:23:46.096Z,7.91
2023-05-02T00:24:46.157Z,6.75
2023-05-02T00:25:46.522Z,6.58
2023-05-02T00:26:46.345Z,6.36
2023-05-02T00:27:46.394Z,6.21
2023-05-02T00:28:46.396Z,6.80
2023-05-02T00:29:46.469Z,7.28
2023-05-02T00:30:47.200Z,7.28
2023-05-02T00:31:46.596Z,7.66
2023-05-02T00:32:46.715Z,8.05
2023-05-02T00:33:46.718Z,8.52
2023-05-02T00:34:46.791Z,7.08
2023-05-02T00:35:46.998Z,6.51
2023-05-02T00:36:46.936Z,6.55
2023-05-02T00:37:47.008Z,7.33
2023-05-02T00:38:47.046Z,6.99
2023-05-02T00:39:47.078Z,8.00
2023-05-02T00:40:47.482Z,8.55
2023-05-02T00:41:47.239Z,8.63
2023-05-02T00:42:47.272Z,8.35
2023-05-02T00:43:47.385Z,7.64
2023-05-02T00:44:47.382Z,7.04
2023-05-02T00:45:47.493Z,6.69
2023-05-02T00:46:47.582Z,6.99
2023-05-02T00:47:47.531Z,6.74
2023-05-02T00:48:47.585Z,7.14
2023-05-02T00:49:47.654Z,6.96
2023-05-02T00:50:47.645Z,6.46
2023-05-02T00:51:47.704Z,6.35
2023-05-02T00:52:47.717Z,6.45
2023-05-02T00:53:47.722Z,5.96
2023-05-02T00:54:47.744Z,5.29
2023-05-02T00:55:47.810Z,5.16
2023-05-02T00:56:47.828Z,5.40
2023-05-02T00:57:47.872Z,5.60
2023-05-02T00:58:47.986Z,6.39
2023-05-02T00:59:47.905Z,6.03
2023-05-02T01:00:47.949Z,6.39
2023-05-02T01:01:47.995Z,6.33
2023-05-02T01:02:48.121Z,6.73
2023-05-02T01:03:48.111Z,7.53
2023-05-02T01:04:48.113Z,7.91
2023-05-02T01:05:48.136Z,7.93
2023-05-02T01:06:48.316Z,8.25
2023-05-02T01:07:48.191Z,7.88
2023-05-02T01:08:48.234Z,7.50
2023-05-02T01:09:48.297Z,8.01
2023-05-02T01:10:48.998Z,9.15
2023-05-02T01:11:48.410Z,9.45
2023-05-02T01:12:48.401Z,9.72
2023-05-02T01:13:48.434Z,9.86
2023-05-02T01:14:48.482Z,8.92
2023-05-02T01:15:48.647Z,9.24
2023-05-02T01:16:48.609Z,9.33
2023-05-02T01:17:48.659Z,10.23
2023-05-02T01:18:48.654Z,9.65
2023-05-02T01:19:48.693Z,10.05
2023-05-02T01:20:48.755Z,9.97
2023-05-02T01:21:48.783Z,9.90
2023-05-02T01:22:48.879Z,9.28
2023-05-02T01:23:48.876Z,9.04
2023-05-02T01:24:48.851Z,8.86
2023-05-02T01:25:48.964Z,8.40
2023-05-02T01:26:48.962Z,6.91
2023-05-02T01:27:48.998Z,6.46
2023-05-02T01:28:49.051Z,6.56
2023-05-02T01:29:49.054Z,6.77
2023-05-02T01:30:49.080Z,7.18
2023-05-02T01:31:49.180Z,6.83
2023-05-02T01:32:49.134Z,6.57
2023-05-02T01:33:49.151Z,6.57
2023-05-02T01:34:49.167Z,6.53
2023-05-02T01:35:49.172Z,6.86
2023-05-02T01:36:49.186Z,6.38
2023-05-02T01:37:49.210Z,5.81
2023-05-02T01:38:49.256Z,5.69
2023-05-02T01:39:49.280Z,5.93
2023-05-02T01:40:49.291Z,6.85
2023-05-02T01:41:49.339Z,7.08
2023-05-02T01:42:49.424Z,6.69
2023-05-02T01:43:49.471Z,6.09
2023-05-02T01:44:49.520Z,5.96
2023-05-02T01:45:49.578Z,6.04
2023-05-02T01:46:50.084Z,6.18
2023-05-02T01:47:49.707Z,5.45
2023-05-02T01:48:49.786Z,5.29
2023-05-02T01:49:49.790Z,6.03
2023-05-02T01:50:49.863Z,5.69
2023-05-02T01:51:49.910Z,5.94
2023-05-02T01:52:49.949Z,6.71
2023-05-02T01:53:49.984Z,7.89
2023-05-02T01:54:49.989Z,7.36
2023-05-02T01:55:49.978Z,7.58
2023-05-02T01:56:50.506Z,5.93
2023-05-02T01:57:50.053Z,4.97
2023-05-02T01:58:50.067Z,4.03
2023-05-02T01:59:50.127Z,4.76
2023-05-02T02:00:50.138Z,5.34
2023-05-02T02:01:50.153Z,5.63
2023-05-02T02:02:50.234Z,5.96
2023-05-02T02:03:50.232Z,5.30
2023-05-02T02:04:50.227Z,4.69
2023-05-02T02:05:50.183Z,4.16
2023-05-02T02:06:50.241Z,4.36
2023-05-02T02:07:50.207Z,4.18
2023-05-02T02:08:50.245Z,4.03
2023-05-02T02:09:50.244Z,4.15
2023-05-02T02:10:50.249Z,4.41
2023-05-02T02:11:50.254Z,3.91
2023-05-02T02:12:50.217Z,2.97
2023-05-02T02:13:50.214Z,2.90
2023-05-02T02:14:50.248Z,3.03
2023-05-02T02:15:50.238Z,3.27
2023-05-02T02:16:51.062Z,3.07
2023-05-02T02:17:50.213Z,3.55
2023-05-02T02:18:50.198Z,3.02
2023-05-02T02:19:50.182Z,3.33
2023-05-02T02:20:50.225Z,3.82
2023-05-02T02:21:50.529Z,3.99
2023-05-02T02:22:50.178Z,4.26
2023-05-02T02:23:50.230Z,4.83
2023-05-02T02:24:50.992Z,5.29
2023-05-02T02:25:50.198Z,6.31
2023-05-02T02:26:50.546Z,7.47
2023-05-02T02:27:50.206Z,7.66
2023-05-02T02:28:50.205Z,7.24
2023-05-02T02:29:50.241Z,7.25
2023-05-02T02:30:50.325Z,7.38
2023-05-02T02:31:50.239Z,7.77
2023-05-02T02:32:50.356Z,8.25
2023-05-02T02:33:50.246Z,7.34
2023-05-02T02:34:50.249Z,7.08
2023-05-02T02:35:50.262Z,7.68
2023-05-02T02:36:50.270Z,7.47
2023-05-02T02:37:50.243Z,8.11
2023-05-02T02:38:50.259Z,8.30
2023-05-02T02:39:50.261Z,9.22
2023-05-02T02:40:50.246Z,10.00
2023-05-02T02:41:50.507Z,8.91
2023-05-02T02:42:50.263Z,8.58
2023-05-02T02:43:50.241Z,7.31
2023-05-02T02:44:50.270Z,7.99
2023-05-02T02:45:50.294Z,7.80
2023-05-02T02:46:50.299Z,7.74
2023-05-02T02:47:50.338Z,6.61
2023-05-02T02:48:50.250Z,6.52
2023-05-02T02:49:50.282Z,7.13
2023-05-02T02:50:50.314Z,7.34
2023-05-02T02:51:50.524Z,7.89
2023-05-02T02:52:50.323Z,8.09
2023-05-02T02:53:50.333Z,7.77
2023-05-02T02:54:50.344Z,6.83
2023-05-02T02:55:50.341Z,6.93
2023-05-02T02:56:50.548Z,7.86
2023-05-02T02:57:50.407Z,8.04
2023-05-02T02:58:50.518Z,8.14
2023-05-02T02:59:50.473Z,8.51
2023-05-02T03:00:50.454Z,7.73
2023-05-02T03:01:50.600Z,8.24
2023-05-02T03:02:50.536Z,9.45
2023-05-02T03:03:50.569Z,10.44
2023-05-02T03:04:50.553Z,10.88
2023-05-02T03:05:50.562Z,10.57
2023-05-02T03:06:51.152Z,7.97
2023-05-02T03:07:50.576Z,7.31
2023-05-02T03:08:50.606Z,7.43
2023-05-02T03:09:50.596Z,7.56
2023-05-02T03:10:50.645Z,8.08
2023-05-02T03:11:51.008Z,8.52
2023-05-02T03:12:50.674Z,9.18
2023-05-02T03:13:50.648Z,8.43
2023-05-02T03:14:50.705Z,8.29
2023-05-02T03:15:50.760Z,8.92
2023-05-02T03:16:50.766Z,8.07
2023-05-02T03:17:50.768Z,7.84
2023-05-02T03:18:50.750Z,7.47
2023-05-02T03:19:50.756Z,7.60
2023-05-02T03:20:50.795Z,8.37
2023-05-02T03:21:51.009Z,8.17
2023-05-02T03:22:50.814Z,8.60
2023-05-02T03:23:50.895Z,9.04
2023-05-02T03:24:50.854Z,10.08
2023-05-02T03:25:50.904Z,10.57
2023-05-02T03:26:50.987Z,8.57
2023-05-02T03:27:50.965Z,8.14
2023-05-02T03:28:50.973Z,10.95
2023-05-02T03:29:51.005Z,13.38
2023-05-02T03:30:51.055Z,11.85
2023-05-02T03:31:51.191Z,8.53
2023-05-02T03:32:51.134Z,6.28
2023-05-02T03:33:51.128Z,6.29
2023-05-02T03:34:51.184Z,5.96
2023-05-02T03:35:51.199Z,5.49
2023-05-02T03:36:51.224Z,4.57
2023-05-02T03:37:51.245Z,3.92
2023-05-02T03:38:51.280Z,4.80
2023-05-02T03:39:51.275Z,6.22
2023-05-02T03:40:51.324Z,8.93
2023-05-02T03:41:51.340Z,12.27
2023-05-02T03:42:51.353Z,14.65
2023-05-02T03:43:51.398Z,14.61
2023-05-02T03:44:51.392Z,15.35
2023-05-02T03:45:51.456Z,16.83
2023-05-02T03:46:51.475Z,14.91
2023-05-02T03:47:51.515Z,12.28
2023-05-02T03:48:51.497Z,10.12
2023-05-02T03:49:51.575Z,8.14
2023-05-02T03:50:51.622Z,6.51
2023-05-02T03:51:51.645Z,5.70
2023-05-02T03:52:51.668Z,5.02
2023-05-02T03:53:51.717Z,5.40
2023-05-02T03:54:51.712Z,5.20
2023-05-02T03:55:51.775Z,5.34
2023-05-02T03:56:51.825Z,4.95
2023-05-02T03:57:51.833Z,4.94
2023-05-02T03:58:51.872Z,5.71
2023-05-02T03:59:51.898Z,6.02
2023-05-02T04:00:51.924Z,5.77
2023-05-02T04:01:51.993Z,4.02
2023-05-02T04:02:52.109Z,2.78
2023-05-02T04:03:52.024Z,2.24
2023-05-02T04:04:52.061Z,2.33
2023-05-02T04:05:52.076Z,2.11
2023-05-02T04:06:52.187Z,2.50
2023-05-02T04:07:52.168Z,2.59
2023-05-02T04:08:52.150Z,2.79
2023-05-02T04:09:52.190Z,3.15
2023-05-02T04:10:52.238Z,3.00
2023-05-02T04:11:52.248Z,2.96
2023-05-02T04:12:52.252Z,3.30
2023-05-02T04:13:53.365Z,3.49
2023-05-02T04:14:52.304Z,3.78
2023-05-02T04:15:52.318Z,4.18
2023-05-02T04:16:52.429Z,4.58
2023-05-02T04:17:52.403Z,4.86
2023-05-02T04:18:52.411Z,5.03
2023-05-02T04:19:52.432Z,4.91
2023-05-02T04:20:52.461Z,4.81
2023-05-02T04:21:52.563Z,4.44
2023-05-02T04:22:52.523Z,4.23
2023-05-02T04:23:52.548Z,4.57
2023-05-02T04:24:52.637Z,5.17
2023-05-02T04:25:52.609Z,5.59
2023-05-02T04:26:53.061Z,5.88
2023-05-02T04:27:52.692Z,5.46
2023-05-02T04:28:52.719Z,5.33
2023-05-02T04:29:52.802Z,5.91
2023-05-02T04:30:52.872Z,6.45
2023-05-02T04:31:52.860Z,6.60
2023-05-02T04:32:52.927Z,6.02
2023-05-02T04:33:52.947Z,5.81
2023-05-02T04:34:52.947Z,4.57
2023-05-02T04:35:53.050Z,4.42
2023-05-02T04:36:53.044Z,5.39
2023-05-02T04:37:53.062Z,5.84
2023-05-02T04:38:53.092Z,5.66
2023-05-02T04:39:53.151Z,5.18
2023-05-02T04:40:53.223Z,4.91
2023-05-02T04:41:53.273Z,4.54
2023-05-02T04:42:53.233Z,4.79
2023-05-02T04:43:53.276Z,4.77
2023-05-02T04:44:53.312Z,4.44
2023-05-02T04:45:53.426Z,4.66
2023-05-02T04:46:53.712Z,4.89
2023-05-02T04:47:53.489Z,4.58
2023-05-02T04:48:53.458Z,5.40
2023-05-02T04:49:53.524Z,6.26
2023-05-02T04:50:53.492Z,6.71
2023-05-02T04:51:53.570Z,7.43
2023-05-02T04:52:53.588Z,7.94
2023-05-02T04:53:53.587Z,8.56
2023-05-02T04:54:53.663Z,8.31
2023-05-02T04:55:53.622Z,8.04
2023-05-02T04:56:53.666Z,6.92
2023-05-02T04:57:53.689Z,5.26
2023-05-02T04:58:53.732Z,4.35
2023-05-02T04:59:53.750Z,3.54
2023-05-02T05:00:53.822Z,3.45
2023-05-02T05:01:53.841Z,3.94
2023-05-02T05:02:53.921Z,4.13
2023-05-02T05:03:53.920Z,3.98
2023-05-02T05:04:53.867Z,3.80
2023-05-02T05:05:53.882Z,4.18
2023-05-02T05:06:53.984Z,4.69
2023-05-02T05:07:53.927Z,5.69
2023-05-02T05:08:53.920Z,5.77
2023-05-02T05:09:53.981Z,6.46
2023-05-02T05:10:54.026Z,6.64
2023-05-02T05:11:54.033Z,7.19
2023-05-02T05:12:54.021Z,7.10
2023-05-02T05:13:54.022Z,6.89
2023-05-02T05:14:54.033Z,6.27
2023-05-02T05:15:54.131Z,6.32
2023-05-02T05:16:54.577Z,6.46
2023-05-02T05:17:54.143Z,7.61
2023-05-02T05:18:54.127Z,9.94
2023-05-02T05:19:54.145Z,12.38
2023-05-02T05:20:54.181Z,13.44
2023-05-02T05:21:54.262Z,16.38
2023-05-02T05:22:54.331Z,17.38
2023-05-02T05:23:54.303Z,17.86
2023-05-02T05:24:54.392Z,19.96
2023-05-02T05:25:55.064Z,19.33
2023-05-02T05:26:54.425Z,25.70
2023-05-02T05:27:54.454Z,32.80
2023-05-02T05:28:54.405Z,20.95
2023-05-02T05:29:54.439Z,15.97
2023-05-02T05:30:54.480Z,12.81
2023-05-02T05:31:54.522Z,12.37
2023-05-02T05:32:54.641Z,12.18
2023-05-02T05:33:54.516Z,11.25
2023-05-02T05:34:54.509Z,9.55
2023-05-02T05:35:54.571Z,9.64
2023-05-02T05:36:54.568Z,9.71
2023-05-02T05:37:54.568Z,10.15
2023-05-02T05:38:54.607Z,11.00
2023-05-02T05:39:54.556Z,12.97
2023-05-02T05:40:54.565Z,13.54
2023-05-02T05:41:54.524Z,15.18
2023-05-02T05:42:54.548Z,16.14
2023-05-02T05:43:54.559Z,18.47
2023-05-02T05:44:54.567Z,17.63
2023-05-02T05:45:54.591Z,13.49
2023-05-02T05:46:54.711Z,12.54
2023-05-02T05:47:54.709Z,13.08
2023-05-02T05:48:54.683Z,14.04
2023-05-02T05:49:54.674Z,11.74
2023-05-02T05:50:54.668Z,11.29
2023-05-02T05:51:54.666Z,11.92
2023-05-02T05:52:54.690Z,12.59
2023-05-02T05:53:54.637Z,10.78
2023-05-02T05:54:54.631Z,10.45
2023-05-02T05:55:54.640Z,12.27
2023-05-02T05:56:54.634Z,13.31
2023-05-02T05:57:54.665Z,15.48
2023-05-02T05:58:54.620Z,12.52
2023-05-02T05:59:54.683Z,12.56
2023-05-02T06:00:54.618Z,18.39
2023-05-02T06:01:54.637Z,24.82
2023-05-02T06:02:54.728Z,29.72
2023-05-02T06:03:54.650Z,29.70
2023-05-02T06:04:54.789Z,30.51
2023-05-02T06:05:54.666Z,25.88
2023-05-02T06:06:54.779Z,24.26
2023-05-02T06:07:54.660Z,25.29
2023-05-02T06:08:54.684Z,24.12
2023-05-02T06:09:54.681Z,25.46
2023-05-02T06:10:54.704Z,30.22
2023-05-02T06:11:54.665Z,38.95
2023-05-02T06:12:54.712Z,45.20
2023-05-02T06:13:54.778Z,46.63
2023-05-02T06:14:54.718Z,40.33
2023-05-02T06:15:54.794Z,37.17
2023-05-02T06:16:54.791Z,38.32
2023-05-02T06:17:55.147Z,36.40
2023-05-02T06:18:54.790Z,29.98
2023-05-02T06:19:54.801Z,24.51
2023-05-02T06:20:54.805Z,21.57
2023-05-02T06:21:54.812Z,17.12
2023-05-02T06:22:54.834Z,16.33
2023-05-02T06:23:54.810Z,17.72
2023-05-02T06:24:54.862Z,18.05
2023-05-02T06:25:54.847Z,19.78
2023-05-02T06:26:54.845Z,16.34
2023-05-02T06:27:54.861Z,11.81
2023-05-02T06:28:54.909Z,8.76
2023-05-02T06:29:54.852Z,12.50
2023-05-02T06:30:54.891Z,13.17
2023-05-02T06:31:55.005Z,14.80
2023-05-02T06:32:55.010Z,19.04
2023-05-02T06:33:54.992Z,19.88
2023-05-02T06:34:54.996Z,24.12
2023-05-02T06:35:54.997Z,25.10
2023-05-02T06:36:55.013Z,23.35
2023-05-02T06:37:55.122Z,27.99
2023-05-02T06:38:55.055Z,31.62
2023-05-02T06:39:55.061Z,34.19
2023-05-02T06:40:55.061Z,35.69
2023-05-02T06:41:55.166Z,36.94
2023-05-02T06:42:55.154Z,36.84
2023-05-02T06:43:55.157Z,35.82
2023-05-02T06:44:55.176Z,33.70
2023-05-02T06:45:55.209Z,36.09
2023-05-02T06:46:55.294Z,45.30
2023-05-02T06:47:55.302Z,57.23
2023-05-02T06:48:55.250Z,56.21
2023-05-02T06:49:55.256Z,54.53
2023-05-02T06:50:55.268Z,48.42
2023-05-02T06:51:55.294Z,47.07
2023-05-02T06:52:55.282Z,39.99
2023-05-02T06:53:55.321Z,37.34
2023-05-02T06:54:55.277Z,33.58
2023-05-02T06:55:55.269Z,29.67
2023-05-02T06:56:55.324Z,31.89
2023-05-02T06:57:55.317Z,32.84
2023-05-02T06:58:55.326Z,31.57
2023-05-02T06:59:55.348Z,29.42
2023-05-02T07:00:55.329Z,23.99
2023-05-02T07:01:55.311Z,16.86
2023-05-02T07:02:55.433Z,14.27
2023-05-02T07:03:55.404Z,12.79
2023-05-02T07:04:55.367Z,14.28
2023-05-02T07:05:55.316Z,14.88
2023-05-02T07:06:55.333Z,17.65
2023-05-02T07:07:55.335Z,15.41
2023-05-02T07:08:55.331Z,17.42
2023-05-02T07:09:55.300Z,22.97
2023-05-02T07:10:55.321Z,27.29
2023-05-02T07:11:55.355Z,14.62
2023-05-02T07:12:55.334Z,6.56
2023-05-02T07:13:55.430Z,5.68
2023-05-02T07:14:55.404Z,4.69
2023-05-02T07:15:55.395Z,4.95
2023-05-02T07:16:55.497Z,5.82
2023-05-02T07:17:55.497Z,6.31
2023-05-02T07:18:55.429Z,8.24
2023-05-02T07:19:55.462Z,9.37
2023-05-02T07:20:55.525Z,8.01
2023-05-02T07:21:55.597Z,7.43
2023-05-02T07:22:55.631Z,10.11
2023-05-02T07:23:55.639Z,14.16
2023-05-02T07:24:55.672Z,17.07
2023-05-02T07:25:55.708Z,24.42
2023-05-02T07:26:55.718Z,31.79
2023-05-02T07:27:55.764Z,40.73
2023-05-02T07:28:55.774Z,44.88
2023-05-02T07:29:55.865Z,52.00
2023-05-02T07:30:55.841Z,63.21
2023-05-02T07:31:55.911Z,68.18
2023-05-02T07:32:55.958Z,64.34
2023-05-02T07:33:55.923Z,51.79
2023-05-02T07:34:55.981Z,46.40
2023-05-02T07:35:56.099Z,44.58
2023-05-02T07:36:56.127Z,42.84
2023-05-02T07:37:56.174Z,42.27
2023-05-02T07:38:56.252Z,38.20
2023-05-02T07:39:56.316Z,28.34
2023-05-02T07:40:56.401Z,23.72
2023-05-02T07:41:56.433Z,20.72
2023-05-02T07:42:56.498Z,18.88
2023-05-02T07:43:57.088Z,20.29
2023-05-02T07:44:56.615Z,21.18
2023-05-02T07:45:56.676Z,19.58
2023-05-02T07:46:56.719Z,17.48
2023-05-02T07:47:56.898Z,17.53
2023-05-02T07:48:56.787Z,17.02
2023-05-02T07:49:56.852Z,16.53
2023-05-02T07:50:56.959Z,15.59
2023-05-02T07:51:56.965Z,17.49
2023-05-02T07:52:57.064Z,15.57
2023-05-02T07:53:58.131Z,16.17
2023-05-02T07:54:57.175Z,18.59
2023-05-02T07:55:57.241Z,18.59
2023-05-02T07:56:57.286Z,20.82
2023-05-02T07:57:57.376Z,17.58
2023-05-02T07:58:57.410Z,17.50
2023-05-02T07:59:57.609Z,18.37
2023-05-02T08:00:57.503Z,18.58
2023-05-02T08:01:57.601Z,15.76
2023-05-02T08:02:58.226Z,11.76
2023-05-02T08:03:57.818Z,5.92
2023-05-02T08:04:57.773Z,5.18
2023-05-02T08:05:57.786Z,5.72
2023-05-02T08:06:57.828Z,5.28
2023-05-02T08:07:57.857Z,5.22
2023-05-02T08:08:57.907Z,5.78
2023-05-02T08:09:58.011Z,6.75
2023-05-02T08:10:58.000Z,7.08
2023-05-02T08:11:58.069Z,7.89
2023-05-02T08:12:58.134Z,8.91
2023-05-02T08:13:58.196Z,8.76
2023-05-02T08:14:58.260Z,8.70
2023-05-02T08:15:58.417Z,8.26
2023-05-02T08:16:58.319Z,7.31
2023-05-02T08:17:58.429Z,7.89
2023-05-02T08:18:58.425Z,6.91
2023-05-02T08:19:58.596Z,6.85
2023-05-02T08:20:58.539Z,4.64
2023-05-02T08:21:58.514Z,4.24
2023-05-02T08:23:00.045Z,4.51
2023-05-02T08:23:58.619Z,4.87
2023-05-02T08:24:58.596Z,5.70
2023-05-02T08:25:58.677Z,5.80
2023-05-02T08:26:58.722Z,5.05
2023-05-02T08:27:58.739Z,5.00
2023-05-02T08:28:58.778Z,5.10
2023-05-02T08:30:01.024Z,4.37
2023-05-02T08:30:58.976Z,3.73
2023-05-02T08:31:58.979Z,3.52
2023-05-02T08:32:59.162Z,3.83
2023-05-02T08:33:59.089Z,4.95
2023-05-02T08:34:59.107Z,6.12
2023-05-02T08:35:59.632Z,6.15
2023-05-02T08:36:59.140Z,5.76
2023-05-02T08:37:59.171Z,4.98
2023-05-02T08:38:59.184Z,5.52
2023-05-02T08:39:59.505Z,6.04
2023-05-02T08:40:59.253Z,7.84
2023-05-02T08:41:59.262Z,5.63
2023-05-02T08:42:59.318Z,6.14
2023-05-02T08:43:59.273Z,7.09
2023-05-02T08:44:59.335Z,9.44
2023-05-02T08:45:59.342Z,10.36
2023-05-02T08:46:59.365Z,11.20
2023-05-02T08:47:59.594Z,12.08
2023-05-02T08:48:59.380Z,11.31
2023-05-02T08:49:59.482Z,6.34
2023-05-02T08:50:59.354Z,4.97
2023-05-02T08:51:59.414Z,5.42
2023-05-02T08:52:59.401Z,6.60
2023-05-02T08:53:59.427Z,7.80
2023-05-02T08:54:59.521Z,6.92
2023-05-02T08:55:59.441Z,5.04
2023-05-02T08:56:59.491Z,4.58
2023-05-02T08:57:59.445Z,3.85
2023-05-02T08:58:59.451Z,3.74
2023-05-02T08:59:59.480Z,2.67
2023-05-02T09:00:59.520Z,1.80
2023-05-02T09:01:59.466Z,1.84
2023-05-02T09:02:59.684Z,1.96
2023-05-02T09:03:59.516Z,2.29
2023-05-02T09:04:59.614Z,2.71
2023-05-02T09:05:59.512Z,2.86
2023-05-02T09:06:59.500Z,2.31
2023-05-02T09:07:59.514Z,2.09
2023-05-02T09:08:59.547Z,2.34
2023-05-02T09:09:59.556Z,2.70
2023-05-02T09:10:59.572Z,2.61
2023-05-02T09:11:59.575Z,3.38
2023-05-02T09:12:59.627Z,3.74
2023-05-02T09:13:59.594Z,4.48
2023-05-02T09:14:59.924Z,5.06
2023-05-02T09:15:59.631Z,4.11
2023-05-02T09:16:59.796Z,3.33
2023-05-02T09:18:00.215Z,4.07
2023-05-02T09:18:59.665Z,5.15
2023-05-02T09:19:59.700Z,5.62
2023-05-02T09:20:59.698Z,4.89
2023-05-02T09:21:59.672Z,4.70
2023-05-02T09:22:59.709Z,3.38
2023-05-02T09:23:59.871Z,3.88
2023-05-02T09:25:00.027Z,4.27
2023-05-02T09:25:59.800Z,5.20
2023-05-02T09:26:59.808Z,5.48
2023-05-02T09:28:00.160Z,3.90
2023-05-02T09:29:00.199Z,4.13
2023-05-02T09:30:00.038Z,5.11
2023-05-02T09:31:00.060Z,6.86
2023-05-02T09:32:00.101Z,7.75
2023-05-02T09:33:00.191Z,8.97
2023-05-02T09:34:00.235Z,8.55
2023-05-02T09:35:00.557Z,3.66
2023-05-02T09:36:00.336Z,3.12
2023-05-02T09:37:00.448Z,3.14
2023-05-02T09:38:00.475Z,2.45
2023-05-02T09:39:00.497Z,2.37
2023-05-02T09:40:00.563Z,2.13
2023-05-02T09:41:00.612Z,2.26
2023-05-02T09:42:00.723Z,2.21
2023-05-02T09:43:01.144Z,2.55
2023-05-02T09:44:00.848Z,2.35
2023-05-02T09:45:01.103Z,2.00
2023-05-02T09:46:00.956Z,1.76
2023-05-02T09:47:00.995Z,1.63
2023-05-02T09:48:01.217Z,1.84
2023-05-02T09:49:01.196Z,1.36
2023-05-02T09:50:01.243Z,0.87
2023-05-02T09:51:01.324Z,0.97
2023-05-02T09:52:01.334Z,1.23
2023-05-02T09:53:01.645Z,1.22
2023-05-02T09:54:01.470Z,1.19
2023-05-02T09:55:01.804Z,1.13
2023-05-02T09:56:01.582Z,1.17
2023-05-02T09:57:01.653Z,1.28
2023-05-02T09:58:01.686Z,1.29
2023-05-02T09:59:01.765Z,1.02
2023-05-02T10:00:01.824Z,1.01
2023-05-02T10:01:01.914Z,0.83
2023-05-02T10:02:02.105Z,0.91
2023-05-02T10:03:02.236Z,1.33
2023-05-02T10:04:02.058Z,1.94
2023-05-02T10:05:02.328Z,1.74
2023-05-02T10:06:02.138Z,1.95
2023-05-02T10:07:02.188Z,1.89
2023-05-02T10:08:02.671Z,1.87
2023-05-02T10:09:02.339Z,2.74
2023-05-02T10:10:02.363Z,3.96
2023-05-02T10:11:02.416Z,4.99
2023-05-02T10:12:02.434Z,6.36
2023-05-02T10:13:02.486Z,6.24
2023-05-02T10:14:02.526Z,4.54
2023-05-02T10:15:02.777Z,5.56
2023-05-02T10:16:02.789Z,6.97
2023-05-02T10:17:02.648Z,3.41
2023-05-02T10:18:02.729Z,2.20
2023-05-02T10:19:02.725Z,2.76
2023-05-02T10:20:02.770Z,3.91
2023-05-02T10:21:02.834Z,5.14
2023-05-02T10:22:02.896Z,3.76
2023-05-02T10:23:02.892Z,3.32
2023-05-02T10:24:02.916Z,3.52
2023-05-02T10:25:03.429Z,3.70
2023-05-02T10:26:02.937Z,3.12
2023-05-02T10:27:03.013Z,2.05
2023-05-02T10:28:03.048Z,1.41
2023-05-02T10:29:03.133Z,1.24
2023-05-02T10:30:03.131Z,1.36
2023-05-02T10:31:03.150Z,1.38
2023-05-02T10:32:03.248Z,0.70
2023-05-02T10:33:03.244Z,0.39
2023-05-02T10:34:03.132Z,0.66
2023-05-02T10:35:03.331Z,0.50
2023-05-02T10:36:03.163Z,0.36
2023-05-02T10:37:03.250Z,0.47
2023-05-02T10:38:03.171Z,0.55
2023-05-02T10:39:03.166Z,0.72
2023-05-02T10:40:03.228Z,0.57
2023-05-02T10:41:03.207Z,0.39
2023-05-02T10:42:03.188Z,0.34
2023-05-02T10:43:03.248Z,0.45
2023-05-02T10:44:03.231Z,0.42
2023-05-02T10:45:03.445Z,0.34
2023-05-02T10:46:03.319Z,0.34
2023-05-02T10:47:03.377Z,0.44
2023-05-02T10:48:03.428Z,0.46
2023-05-02T10:49:03.405Z,0.53
2023-05-02T10:50:03.448Z,0.73
2023-05-02T10:51:03.470Z,0.89
2023-05-02T10:52:03.551Z,1.08
2023-05-02T10:53:03.649Z,0.72
2023-05-02T10:54:03.678Z,0.72
2023-05-02T10:55:03.681Z,0.89
2023-05-02T10:56:03.805Z,1.35
2023-05-02T10:57:03.858Z,1.09
2023-05-02T10:58:03.913Z,0.83
2023-05-02T10:59:03.954Z,0.90
2023-05-02T11:00:04.018Z,1.00
2023-05-02T11:01:04.122Z,0.73
2023-05-02T11:02:06.770Z,0.54
2023-05-02T11:03:04.289Z,0.73
2023-05-02T11:04:04.156Z,0.80
2023-05-02T11:05:04.587Z,0.65
2023-05-02T11:06:04.136Z,0.79
2023-05-02T11:07:04.112Z,0.75
2023-05-02T11:08:04.193Z,0.61
2023-05-02T11:09:04.096Z,0.70
2023-05-02T11:10:04.078Z,0.87
2023-05-02T11:11:04.090Z,1.02
2023-05-02T11:12:04.128Z,0.97
2023-05-02T11:13:04.047Z,1.05
2023-05-02T11:14:04.194Z,0.64
2023-05-02T11:15:04.031Z,0.73
2023-05-02T11:16:04.137Z,1.10
2023-05-02T11:17:04.114Z,1.41
2023-05-02T11:18:04.107Z,1.57
2023-05-02T11:19:04.169Z,1.37
2023-05-02T11:20:04.024Z,1.39
2023-05-02T11:21:03.989Z,1.49
2023-05-02T11:22:04.014Z,1.27
2023-05-02T11:23:03.994Z,0.93
2023-05-02T11:24:03.974Z,0.61
2023-05-02T11:25:03.992Z,0.57
2023-05-02T11:26:03.951Z,0.65
2023-05-02T11:27:03.949Z,0.74
2023-05-02T11:28:03.952Z,1.09
2023-05-02T11:29:03.946Z,1.33
2023-05-02T11:30:03.926Z,1.23
2023-05-02T11:31:03.925Z,0.89
2023-05-02T11:32:04.010Z,1.07
2023-05-02T11:33:03.978Z,1.29
2023-05-02T11:34:03.947Z,1.56
2023-05-02T11:35:03.957Z,2.04
2023-05-02T11:36:03.904Z,118.68
2023-05-02T11:37:03.897Z,21.44
2023-05-02T11:38:03.903Z,3.87
2023-05-02T11:39:03.882Z,1.63
2023-05-02T11:40:03.885Z,1.14
2023-05-02T11:41:03.948Z,1.23
2023-05-02T11:42:03.912Z,0.97
2023-05-02T11:43:03.860Z,0.81
2023-05-02T11:44:04.215Z,1.02
2023-05-02T11:45:04.369Z,1.23
2023-05-02T11:46:03.855Z,0.96
2023-05-02T11:47:03.863Z,0.81
2023-05-02T11:48:03.886Z,1.05
2023-05-02T11:49:05.508Z,0.76
2023-05-02T11:50:03.796Z,0.92
2023-05-02T11:51:03.859Z,0.65
2023-05-02T11:52:03.799Z,0.73
2023-05-02T11:53:03.811Z,0.52
2023-05-02T11:54:04.244Z,0.37
2023-05-02T11:55:04.138Z,0.58
2023-05-02T11:56:03.761Z,0.55
2023-05-02T11:57:03.755Z,0.50
2023-05-02T11:58:03.796Z,0.58
2023-05-02T11:59:03.772Z,0.86
2023-05-02T12:00:03.738Z,0.88
2023-05-02T12:01:03.790Z,0.76
2023-05-02T12:02:03.843Z,0.88
2023-05-02T12:03:03.838Z,1.34
2023-05-02T12:04:04.226Z,2.46
2023-05-02T12:05:04.130Z,2.95
2023-05-02T12:06:03.965Z,1.65
2023-05-02T12:07:03.760Z,1.08
2023-05-02T12:08:03.685Z,1.06
2023-05-02T12:09:03.716Z,1.30
2023-05-02T12:10:03.668Z,1.80
2023-05-02T12:11:03.654Z,2.19
2023-05-02T12:12:03.886Z,2.55
2023-05-02T12:13:03.711Z,2.79
2023-05-02T12:14:03.656Z,3.28
2023-05-02T12:15:03.731Z,4.03
2023-05-02T12:16:03.697Z,3.53
2023-05-02T12:17:03.653Z,4.04
2023-05-02T12:18:03.720Z,4.22
2023-05-02T12:19:04.071Z,3.34
2023-05-02T12:20:03.649Z,3.10
2023-05-02T12:21:03.639Z,3.74
2023-05-02T12:22:03.657Z,4.10
2023-05-02T12:23:03.619Z,4.13
2023-05-02T12:24:03.590Z,4.00
2023-05-02T12:25:03.941Z,4.68
2023-05-02T12:26:03.569Z,6.53
2023-05-02T12:27:03.584Z,8.05
2023-05-02T12:28:03.621Z,6.82
2023-05-02T12:29:03.642Z,6.86
2023-05-02T12:30:04.061Z,7.29
2023-05-02T12:31:03.618Z,9.09
2023-05-02T12:32:03.610Z,6.05
2023-05-02T12:33:03.683Z,5.66
2023-05-02T12:34:03.577Z,5.40
2023-05-02T12:35:03.710Z,5.07
2023-05-02T12:36:03.603Z,4.99
2023-05-02T12:37:03.649Z,5.13
2023-05-02T12:38:03.505Z,3.22
2023-05-02T12:39:03.729Z,2.40
2023-05-02T12:40:03.738Z,1.92
2023-05-02T12:41:03.490Z,1.49
2023-05-02T12:42:03.513Z,1.87
2023-05-02T12:43:03.443Z,1.57
2023-05-02T12:44:03.578Z,0.93
2023-05-02T12:45:03.460Z,0.81
2023-05-02T12:46:03.472Z,0.47
2023-05-02T12:47:03.512Z,0.46
2023-05-02T12:48:03.528Z,0.56
2023-05-02T12:49:03.436Z,0.63
2023-05-02T12:50:03.684Z,0.49
2023-05-02T12:51:03.408Z,0.53
2023-05-02T12:52:03.417Z,0.52
2023-05-02T12:53:03.363Z,0.50
2023-05-02T12:54:03.834Z,0.64
2023-05-02T12:55:03.376Z,0.80
2023-05-02T12:56:03.351Z,1.04
2023-05-02T12:57:03.392Z,0.73
2023-05-02T12:58:03.391Z,0.70
2023-05-02T12:59:03.447Z,0.60
2023-05-02T13:00:03.694Z,0.63
2023-05-02T13:01:18.980Z,0.57
2023-05-02T13:02:03.466Z,0.45
2023-05-02T13:03:03.697Z,0.57
2023-05-02T13:04:03.935Z,0.61
2023-05-02T13:05:03.415Z,0.61
2023-05-02T13:06:03.465Z,0.72
2023-05-02T13:07:03.418Z,0.70
2023-05-02T13:08:03.502Z,0.57
2023-05-02T13:09:03.866Z,0.55
2023-05-02T13:10:04.101Z,0.49
2023-05-02T13:11:03.376Z,0.56
2023-05-02T13:12:03.344Z,0.61
2023-05-02T13:13:03.356Z,0.86